Time;durP1;ratioP1;P1;durP2;ratioP2;P2;SDS_P1;SDS_P2;PMS_P1;PMS_P2;Temp;Humidity;BMP_temperature;BMP_pressure;BME280_temperature;BME280_humidity;BME280_pressure;Samples;Min_cycle;Max_cycle;Signal;HPM_P1;HPM_P2
2023/07/04 00:01:25;;;;;;;13.85;3.53;;;;;;;16.09;72.96;101015.19;5075712;28;20056;-63
2023/07/04 00:03:53;;;;;;;16.00;3.85;;;;;;;16.08;73.07;101013.41;5075805;28;20025;-64
2023/07/04 00:06:20;;;;;;;16.73;3.25;;;;;;;16.11;73.14;101015.19;5076012;28;20020;-63
2023/07/04 00:08:46;;;;;;;14.13;3.60;;;;;;;16.10;72.82;101008.06;5075973;28;20206;-63
2023/07/04 00:11:12;;;;;;;15.40;3.95;;;;;;;16.13;72.58;101000.03;5075529;28;20158;-63
2023/07/04 00:13:38;;;;;;;17.75;3.40;;;;;;;16.09;73.08;101004.50;5075763;28;20116;-64
2023/07/04 00:16:14;;;;;;;16.67;4.20;;;;;;;16.07;73.38;101010.78;5075591;28;20486;-64
2023/07/04 00:18:40;;;;;;;14.38;3.80;;;;;;;16.09;73.17;101004.50;5075389;28;20108;-64
2023/07/04 00:21:12;;;;;;;16.80;4.13;;;;;;;16.06;73.13;101004.56;5075295;28;20153;-63
2023/07/04 00:23:37;;;;;;;11.48;3.75;;;;;;;16.04;73.37;100990.34;5075755;28;20036;-64
2023/07/04 00:26:09;;;;;;;17.65;3.95;;;;;;;16.00;73.29;100997.50;5075478;28;20363;-63
2023/07/04 00:28:38;;;;;;;19.48;3.80;;;;;;;16.00;73.40;100996.59;5075642;28;20020;-64
2023/07/04 00:31:05;;;;;;;18.70;4.10;;;;;;;15.97;73.48;101004.63;5075259;28;20034;-63
2023/07/04 00:33:31;;;;;;;15.18;4.03;;;;;;;15.92;73.56;101004.66;5074975;28;20049;-64
2023/07/04 00:36:05;;;;;;;15.10;3.92;;;;;;;15.91;74.04;101005.56;5075320;28;20040;-64
2023/07/04 00:38:32;;;;;;;14.57;3.92;;;;;;;15.90;73.70;101002.94;5075145;28;20039;-64
2023/07/04 00:41:03;;;;;;;17.27;4.15;;;;;;;15.85;74.21;101005.63;5075386;28;20029;-64
2023/07/04 00:44:11;;;;;;;18.33;4.35;;;;;;;15.81;73.73;100998.56;5075325;28;20059;-64
2023/07/04 00:46:53;;;;;;;15.13;4.00;;;;;;;15.72;74.58;100993.31;5075134;28;20481;-64
2023/07/04 00:49:23;;;;;;;16.08;4.25;;;;;;;15.62;75.78;100995.09;5074919;28;20112;-64
2023/07/04 00:52:06;;;;;;;13.18;4.03;;;;;;;15.60;75.62;100994.25;5074994;28;20039;-64
2023/07/04 00:54:45;;;;;;;19.30;4.35;;;;;;;15.61;75.51;100984.47;5075159;28;20025;-64
2023/07/04 00:57:13;;;;;;;13.63;3.67;;;;;;;15.56;76.20;100989.84;5074740;28;20086;-63
2023/07/04 00:59:44;;;;;;;12.68;4.18;;;;;;;15.52;76.59;100994.28;5075037;28;20032;-64
2023/07/04 01:02:12;;;;;;;13.48;3.80;;;;;;;15.53;76.52;100997.84;5074742;28;20032;-64
2023/07/04 01:04:39;;;;;;;16.30;3.88;;;;;;;15.50;76.89;101001.44;5074675;28;20028;-64
2023/07/04 01:07:14;;;;;;;17.73;4.18;;;;;;;15.55;76.74;100992.53;5074742;28;20082;-63
2023/07/04 01:09:45;;;;;;;23.52;4.55;;;;;;;15.55;77.00;101000.50;5074837;28;20105;-63
2023/07/04 01:12:13;;;;;;;13.75;4.00;;;;;;;15.55;77.31;101003.19;5074738;28;20044;-63
2023/07/04 01:14:39;;;;;;;14.40;3.70;;;;;;;15.55;77.52;100995.19;5074625;28;20108;-63
2023/07/04 01:17:06;;;;;;;20.20;4.40;;;;;;;15.58;77.11;101000.47;5074645;28;20025;-64
2023/07/04 01:19:35;;;;;;;14.93;3.90;;;;;;;15.57;77.54;101002.25;5074602;28;20041;-63
2023/07/04 01:22:19;;;;;;;16.98;4.10;;;;;;;15.59;77.15;101005.81;5074526;28;20034;-64
2023/07/04 01:25:14;;;;;;;16.75;4.10;;;;;;;15.54;77.31;101007.59;5074242;28;20504;-64
2023/07/04 01:27:42;;;;;;;17.60;4.18;;;;;;;15.48;77.99;101007.66;5066483;28;20068;-63
2023/07/04 01:30:10;;;;;;;22.08;4.47;;;;;;;15.45;78.55;101010.31;5074470;28;20027;-64
2023/07/04 01:32:36;;;;;;;21.98;4.60;;;;;;;15.42;78.35;101010.38;5073737;28;20025;-64
2023/07/04 01:35:03;;;;;;;19.15;4.68;;;;;;;15.41;78.74;101014.78;5073798;28;20064;-64
2023/07/04 01:37:32;;;;;;;20.80;4.47;;;;;;;15.45;78.20;101015.66;5073957;28;20502;-64
2023/07/04 01:39:58;;;;;;;18.70;4.10;;;;;;;15.45;78.56;101013.00;5074169;28;20031;-65
2023/07/04 01:42:31;;;;;;;16.33;4.53;;;;;;;15.48;78.26;101019.19;5073785;28;20500;-64
2023/07/04 01:45:01;;;;;;;19.60;4.22;;;;;;;15.51;78.31;101012.97;5074163;28;20112;-64
2023/07/04 01:47:28;;;;;;;19.33;4.10;;;;;;;15.49;78.59;101012.06;5074066;28;20094;-64
2023/07/04 01:49:54;;;;;;;19.23;4.20;;;;;;;15.49;78.38;101012.06;5073654;28;20103;-64
2023/07/04 01:52:20;;;;;;;21.02;4.10;;;;;;;15.45;78.60;101005.88;5056054;28;20032;-65
2023/07/04 01:54:45;;;;;;;21.58;4.50;;;;;;;15.47;78.99;101012.09;5073583;28;20075;-64
2023/07/04 01:57:10;;;;;;;20.60;4.30;;;;;;;15.47;78.87;101004.09;5073419;28;20036;-64
2023/07/04 01:59:37;;;;;;;20.98;5.07;;;;;;;15.47;79.12;101011.22;5073566;28;20043;-64
2023/07/04 02:02:02;;;;;;;17.13;4.13;;;;;;;15.45;79.38;101016.53;5073497;28;20116;-65
2023/07/04 02:04:28;;;;;;;20.60;4.53;;;;;;;15.46;79.25;101020.97;5073468;28;20052;-64
2023/07/04 02:06:53;;;;;;;21.05;4.43;;;;;;;15.47;79.51;101017.41;5073402;28;20029;-64
2023/07/04 02:09:18;;;;;;;20.83;4.50;;;;;;;15.51;79.21;101021.84;5073385;28;20084;-64
2023/07/04 02:11:45;;;;;;;14.45;3.78;;;;;;;15.54;79.42;101012.91;5073418;28;20079;-64
2023/07/04 02:14:11;;;;;;;19.08;3.92;;;;;;;15.58;79.03;101005.78;5073635;28;20024;-64
2023/07/04 02:16:36;;;;;;;20.08;4.35;;;;;;;15.63;78.80;101011.97;5073217;28;20119;-64
2023/07/04 02:19:02;;;;;;;13.75;4.00;;;;;;;15.68;78.14;101011.09;5073154;28;20031;-64
2023/07/04 02:21:28;;;;;;;17.20;4.18;;;;;;;15.72;79.12;101014.63;5055586;28;20466;-64
2023/07/04 02:23:54;;;;;;;20.55;4.45;;;;;;;15.70;78.79;100998.63;5055570;28;20028;-64
2023/07/04 02:26:19;;;;;;;17.90;4.82;;;;;;;15.73;78.92;101000.41;5073168;28;20024;-64
2023/07/04 02:28:45;;;;;;;15.73;4.30;;;;;;;15.79;79.09;101011.00;5055164;28;20028;-64
2023/07/04 02:31:10;;;;;;;17.25;4.20;;;;;;;15.82;79.12;101010.09;5073214;28;20134;-64
2023/07/04 02:33:36;;;;;;;16.05;4.28;;;;;;;15.86;79.14;101018.06;5072775;28;20048;-64
2023/07/04 02:36:02;;;;;;;22.30;4.75;;;;;;;15.87;79.50;101016.28;5073020;28;20024;-64
2023/07/04 02:38:27;;;;;;;18.27;4.57;;;;;;;15.88;79.68;101015.38;5073103;28;20040;-64
2023/07/04 02:40:53;;;;;;;17.52;4.53;;;;;;;15.92;79.07;101018.00;5129468;22;20052;-66
2023/07/04 02:43:18;;;;;;;16.70;4.00;;;;;;;15.92;79.83;101015.31;5112744;28;20095;-67
2023/07/04 02:45:45;;;;;;;16.48;4.00;;;;;;;15.93;80.08;101016.19;5113614;28;20107;-66
2023/07/04 02:48:11;;;;;;;18.98;4.55;;;;;;;15.92;80.70;101015.31;5113370;28;20387;-68
2023/07/04 02:50:36;;;;;;;23.75;5.22;;;;;;;15.95;80.64;101009.09;5113497;28;20027;-68
2023/07/04 02:53:02;;;;;;;21.00;5.20;;;;;;;15.93;81.17;101017.13;5113369;28;20059;-67
2023/07/04 02:55:28;;;;;;;22.52;4.80;;;;;;;15.89;81.74;101009.16;5113702;28;20121;-66
2023/07/04 02:57:53;;;;;;;23.02;5.13;;;;;;;15.84;80.74;101001.19;5113271;28;20035;-66
2023/07/04 03:00:19;;;;;;;18.13;4.43;;;;;;;15.78;80.01;101003.91;5113441;28;20027;-66
2023/07/04 03:02:44;;;;;;;16.80;3.95;;;;;;;15.72;79.37;101004.84;5113375;28;20035;-66
2023/07/04 03:05:10;;;;;;;17.42;4.20;;;;;;;15.62;80.18;101008.44;5113601;28;20040;-66
2023/07/04 03:07:35;;;;;;;17.23;4.40;;;;;;;15.52;81.42;101009.41;5113481;28;20076;-66
2023/07/04 03:10:01;;;;;;;12.68;3.85;;;;;;;15.46;81.77;101010.34;5113309;28;20020;-66
2023/07/04 03:12:27;;;;;;;17.08;4.30;;;;;;;15.41;82.80;101008.56;5113267;28;20059;-66
2023/07/04 03:14:52;;;;;;;13.35;4.00;;;;;;;15.38;83.42;101005.94;5095735;28;20024;-66
2023/07/04 03:17:18;;;;;;;15.77;4.40;;;;;;;15.37;83.32;101007.69;5114828;28;20023;-67
2023/07/04 03:19:44;;;;;;;20.33;4.47;;;;;;;15.40;82.53;101010.34;5114061;28;20047;-67
2023/07/04 03:22:10;;;;;;;21.77;5.00;;;;;;;15.34;83.03;101015.72;5095096;28;20039;-66
2023/07/04 03:24:36;;;;;;;15.38;4.35;;;;;;;15.30;82.53;101010.44;5113133;28;20020;-66
2023/07/04 03:27:01;;;;;;;16.17;4.00;;;;;;;15.27;80.84;101014.88;5113111;28;20027;-66
2023/07/04 03:29:27;;;;;;;13.88;3.67;;;;;;;15.26;79.94;101012.22;5113304;28;20020;-66
2023/07/04 03:31:52;;;;;;;12.00;3.95;;;;;;;15.20;80.39;101013.16;5113136;28;20031;-67
2023/07/04 03:34:18;;;;;;;14.57;3.80;;;;;;;15.16;80.04;101006.09;5113305;28;20053;-66
2023/07/04 03:36:43;;;;;;;15.70;3.92;;;;;;;15.14;80.14;101009.63;5113286;28;20031;-65
2023/07/04 03:39:08;;;;;;;17.45;4.07;;;;;;;15.11;79.43;101021.16;5112936;28;20020;-66
2023/07/04 03:41:34;;;;;;;17.33;3.78;;;;;;;15.07;79.89;101018.53;5113425;28;20076;-67
2023/07/04 03:44:00;;;;;;;13.10;3.45;;;;;;;15.01;80.26;101019.44;5113167;28;20361;-66
2023/07/04 03:46:26;;;;;;;13.75;3.97;;;;;;;14.97;80.76;101026.56;5112936;28;20036;-67
2023/07/04 03:48:51;;;;;;;13.48;3.90;;;;;;;14.92;82.02;101023.03;5112752;28;20030;-67
2023/07/04 03:51:17;;;;;;;14.38;3.85;;;;;;;14.95;81.94;101023.03;5113164;28;20461;-67
2023/07/04 03:53:42;;;;;;;13.43;4.18;;;;;;;14.96;83.04;101029.25;5112863;28;20030;-67
2023/07/04 03:56:07;;;;;;;15.25;4.43;;;;;;;14.99;83.98;101029.22;5115464;28;20035;-66
2023/07/04 03:58:33;;;;;;;18.13;4.53;;;;;;;14.93;84.84;101022.16;5116828;28;20035;-66
2023/07/04 04:00:58;;;;;;;23.70;4.75;;;;;;;14.88;86.03;101028.38;5116638;28;20019;-67
2023/07/04 04:03:24;;;;;;;15.43;4.25;;;;;;;14.88;85.58;101028.38;5116591;28;20024;-66
2023/07/04 04:05:50;;;;;;;20.08;4.82;;;;;;;14.90;86.85;101026.59;5116454;28;20036;-67
2023/07/04 04:08:16;;;;;;;15.52;4.50;;;;;;;14.89;86.87;101024.81;5116737;28;20051;-67
2023/07/04 04:10:41;;;;;;;15.50;4.70;;;;;;;14.89;87.05;101032.81;5116385;28;20059;-67
2023/07/04 04:13:07;;;;;;;23.17;5.10;;;;;;;14.89;87.45;101043.44;5116245;28;20023;-67
2023/07/04 04:15:33;;;;;;;18.77;5.20;;;;;;;14.78;88.51;101033.75;5116276;28;20035;-67
2023/07/04 04:17:58;;;;;;;18.27;4.90;;;;;;;14.77;88.67;101036.38;5116095;28;20024;-67
2023/07/04 04:20:25;;;;;;;21.77;4.90;;;;;;;14.77;88.70;101039.03;5116525;28;20442;-67
2023/07/04 04:22:50;;;;;;;25.98;5.10;;;;;;;14.80;89.19;101038.16;5116139;28;20032;-67
2023/07/04 04:25:16;;;;;;;23.85;5.10;;;;;;;14.83;88.85;101036.38;5116298;28;20031;-67
2023/07/04 04:27:48;;;;;;;20.23;4.95;;;;;;;14.82;89.66;101041.69;5116204;28;20027;-66
2023/07/04 04:30:14;;;;;;;19.00;4.78;;;;;;;14.85;89.22;101037.25;5116387;28;20040;-67
2023/07/04 04:32:40;;;;;;;17.48;4.72;;;;;;;14.88;89.48;101047.88;5115994;28;20418;-65
2023/07/04 04:35:08;;;;;;;20.55;4.68;;;;;;;14.93;89.10;101051.41;5115940;28;20027;-67
2023/07/04 04:37:34;;;;;;;20.75;4.88;;;;;;;14.96;89.14;101047.88;5115903;28;20053;-67
2023/07/04 04:39:59;;;;;;;21.25;5.03;;;;;;;14.94;90.13;101052.28;5115765;28;20040;-67
2023/07/04 04:42:29;;;;;;;20.67;4.72;;;;;;;14.97;90.23;101053.16;5115735;28;20046;-67
2023/07/04 04:44:54;;;;;;;20.95;4.95;;;;;;;14.99;90.57;101054.06;5115603;28;20027;-66
2023/07/04 04:47:24;;;;;;;23.15;4.82;;;;;;;15.00;90.10;101054.94;5115879;28;20388;-65
2023/07/04 04:49:51;;;;;;;17.90;5.03;;;;;;;15.01;89.80;101057.59;5115536;28;20035;-66
2023/07/04 04:52:20;;;;;;;24.00;5.35;;;;;;;15.00;89.81;101062.94;5115484;28;20038;-66
2023/07/04 04:54:46;;;;;;;24.77;5.88;;;;;;;14.97;90.34;101063.81;5115597;28;20027;-66
2023/07/04 04:57:12;;;;;;;23.45;5.07;;;;;;;14.94;89.93;101062.94;5115661;28;20031;-67
2023/07/04 04:59:37;;;;;;;18.52;5.00;;;;;;;14.96;89.91;101059.38;5114162;28;20031;-66
2023/07/04 05:02:03;;;;;;;21.27;5.32;;;;;;;15.01;89.65;101064.69;5133535;27;20491;-68
2023/07/04 05:04:28;;;;;;;17.58;4.93;;;;;;;15.04;90.04;101064.69;5100396;27;20038;-65
2023/07/04 05:06:54;;;;;;;17.67;5.03;;;;;;;15.05;90.13;101063.78;5134815;27;20023;-65
2023/07/04 05:09:20;;;;;;;23.55;5.53;;;;;;;15.11;90.22;101068.19;5135683;27;20042;-66
2023/07/04 05:11:45;;;;;;;20.15;5.18;;;;;;;15.13;89.64;101075.28;5135717;27;20024;-66
2023/07/04 05:14:12;;;;;;;21.88;5.40;;;;;;;15.13;90.00;101075.28;5135784;27;20039;-66
2023/07/04 05:16:37;;;;;;;25.45;5.85;;;;;;;15.09;90.71;101075.31;5135508;27;20391;-65
2023/07/04 05:19:03;;;;;;;22.83;5.45;;;;;;;15.12;90.26;101065.53;5135571;27;20023;-66
2023/07/04 05:21:28;;;;;;;20.10;5.45;;;;;;;15.10;90.97;101071.75;5135491;27;20501;-66
2023/07/04 05:23:54;;;;;;;25.95;5.78;;;;;;;15.14;90.40;101069.06;5135520;27;20023;-66
2023/07/04 05:26:22;;;;;;;21.10;5.47;;;;;;;15.22;90.41;101074.38;5135465;27;20050;-66
2023/07/04 05:28:49;;;;;;;24.80;5.45;;;;;;;15.37;89.66;101076.06;5135450;27;20027;-67
2023/07/04 05:31:17;;;;;;;26.42;5.97;;;;;;;15.47;88.92;101075.13;5135674;27;20038;-66
2023/07/04 05:33:44;;;;;;;19.63;5.25;;;;;;;15.53;89.32;101073.31;5135503;27;20023;-66
2023/07/04 05:36:14;;;;;;;15.15;4.82;;;;;;;15.64;88.13;101081.28;5135309;27;20365;-66
2023/07/04 05:38:40;;;;;;;21.13;5.40;;;;;;;15.76;88.14;101085.66;5135756;27;20038;-66
2023/07/04 05:41:10;;;;;;;18.08;5.22;;;;;;;15.85;88.15;101082.03;5134980;27;20039;-66
2023/07/04 05:43:36;;;;;;;19.42;5.28;;;;;;;15.91;87.16;101082.84;5135231;27;20047;-66
2023/07/04 05:46:02;;;;;;;18.60;5.20;;;;;;;15.99;87.29;101088.13;5134960;27;20019;-66
2023/07/04 05:48:27;;;;;;;23.45;4.95;;;;;;;16.05;86.27;101077.41;5116296;27;20108;-65
2023/07/04 05:50:58;;;;;;;20.17;5.07;;;;;;;16.12;86.31;101084.47;5134939;27;20466;-66
2023/07/04 05:53:27;;;;;;;24.02;5.47;;;;;;;16.19;86.09;101080.88;5134875;27;20034;-67
2023/07/04 05:56:03;;;;;;;20.58;5.13;;;;;;;16.34;85.48;101089.63;5134790;27;20468;-65
2023/07/04 05:58:28;;;;;;;20.23;4.90;;;;;;;16.46;84.25;101087.72;5134850;27;20411;-65
2023/07/04 06:00:57;;;;;;;21.80;4.97;;;;;;;16.60;84.08;101079.56;5134682;27;20421;-66
2023/07/04 06:03:23;;;;;;;21.63;4.95;;;;;;;16.67;82.49;101083.06;5134870;27;20031;-67
2023/07/04 06:05:48;;;;;;;20.00;4.28;;;;;;;16.76;80.66;101086.56;5134786;27;20365;-65
2023/07/04 06:08:13;;;;;;;19.77;4.55;;;;;;;16.78;80.67;101087.41;5134574;27;20383;-66
2023/07/04 06:10:39;;;;;;;17.33;4.40;;;;;;;16.76;80.08;101099.91;5134638;27;20029;-66
2023/07/04 06:13:04;;;;;;;16.25;4.40;;;;;;;16.83;80.40;101097.16;5134665;27;20042;-66
2023/07/04 06:15:30;;;;;;;18.85;4.90;;;;;;;16.96;79.75;101090.81;5134432;27;20031;-66
2023/07/04 06:17:55;;;;;;;21.40;4.70;;;;;;;17.06;78.88;101111.13;5134049;27;20098;-66
2023/07/04 06:20:21;;;;;;;19.65;4.45;;;;;;;17.21;78.58;101110.06;5134501;27;20607;-68
2023/07/04 06:22:46;;;;;;;26.40;4.65;;;;;;;17.32;78.06;101105.47;5134493;27;20027;-66
2023/07/04 06:25:12;;;;;;;21.75;5.15;;;;;;;17.42;77.18;101098.22;5134398;27;20119;-66
2023/07/04 06:27:37;;;;;;;21.33;4.90;;;;;;;17.47;77.51;101104.38;5134413;27;20379;-66
2023/07/04 06:30:04;;;;;;;18.85;4.70;;;;;;;17.64;77.25;101110.38;5116680;27;20027;-67
2023/07/04 06:32:29;;;;;;;15.32;4.45;;;;;;;17.64;74.94;101112.16;5117938;27;20028;-67
2023/07/04 06:34:54;;;;;;;21.55;4.78;;;;;;;17.75;74.90;101116.50;5135834;27;20075;-67
2023/07/04 06:37:20;;;;;;;21.27;4.60;;;;;;;17.84;74.59;101112.81;5116118;27;20480;-66
2023/07/04 06:39:45;;;;;;;15.82;4.63;;;;;;;17.87;73.80;101111.88;5134148;27;20054;-66
2023/07/04 06:42:10;;;;;;;19.25;5.03;;;;;;;17.98;73.94;101124.16;5134047;27;20110;-65
2023/07/04 06:44:36;;;;;;;12.90;3.85;;;;;;;18.09;71.37;101115.97;5134300;27;20038;-66
2023/07/04 06:47:01;;;;;;;12.00;3.92;;;;;;;18.22;70.43;101125.56;5134081;27;20531;-68
2023/07/04 06:49:27;;;;;;;19.52;4.30;;;;;;;18.33;70.08;101135.19;5133977;27;20019;-66
2023/07/04 06:51:52;;;;;;;15.32;3.65;;;;;;;18.46;68.13;101126.09;5134356;27;20040;-66
2023/07/04 06:54:17;;;;;;;18.73;4.35;;;;;;;18.37;68.87;101140.50;5133984;27;20495;-65
2023/07/04 06:56:43;;;;;;;19.90;4.47;;;;;;;18.38;69.39;101133.34;5134183;28;20110;-66
2023/07/04 06:59:09;;;;;;;17.02;4.30;;;;;;;18.38;69.33;101139.59;5133717;28;20037;-67
2023/07/04 07:01:34;;;;;;;13.48;4.07;;;;;;;18.40;69.27;101137.75;5134007;28;20027;-67
2023/07/04 07:03:59;;;;;;;13.55;4.15;;;;;;;18.29;68.27;101150.44;5133898;28;20035;-67
2023/07/04 07:06:26;;;;;;;17.17;4.15;;;;;;;18.14;67.96;101151.56;5133833;28;20074;-66
2023/07/04 07:08:52;;;;;;;12.50;3.95;;;;;;;18.18;68.26;101160.41;5133838;28;20119;-66
2023/07/04 07:11:19;;;;;;;16.02;3.70;;;;;;;18.24;65.77;101158.56;5133806;28;20027;-66
2023/07/04 07:13:46;;;;;;;14.23;3.83;;;;;;;18.31;64.09;101147.75;5133552;28;20382;-66
2023/07/04 07:16:22;;;;;;;16.38;3.65;;;;;;;18.59;65.58;101154.41;5115640;28;20459;-68
2023/07/04 07:18:49;;;;;;;20.13;4.30;;;;;;;18.86;64.26;101158.41;5133646;28;20107;-67
2023/07/04 07:21:19;;;;;;;16.90;4.38;;;;;;;19.02;63.06;101145.63;5133577;28;20484;-67
2023/07/04 07:23:46;;;;;;;18.60;3.85;;;;;;;19.08;61.51;101137.44;5133989;28;20060;-67
2023/07/04 07:26:14;;;;;;;12.93;3.92;;;;;;;19.13;61.36;101137.34;5133811;28;20031;-68
2023/07/04 07:28:40;;;;;;;13.68;3.88;;;;;;;19.16;60.82;101164.97;5133796;28;20400;-67
2023/07/04 07:31:07;;;;;;;13.00;3.88;;;;;;;19.34;61.27;101153.00;5136160;27;20058;-68
2023/07/04 07:33:34;;;;;;;14.43;3.75;;;;;;;19.41;59.68;101162.69;5137503;27;20384;-67
2023/07/04 07:36:08;;;;;;;11.13;3.55;;;;;;;19.53;60.28;101166.91;5137674;27;20038;-67
2023/07/04 07:38:33;;;;;;;15.85;3.80;;;;;;;19.49;58.32;101165.22;5137691;27;20038;-68
2023/07/04 07:40:58;;;;;;;15.35;4.22;;;;;;;19.57;58.50;101154.31;5137418;27;20043;-68
2023/07/04 07:43:24;;;;;;;17.42;4.38;;;;;;;19.55;59.03;101159.72;5137329;27;20106;-68
2023/07/04 07:45:49;;;;;;;15.73;4.30;;;;;;;19.64;58.97;101158.66;5137481;27;20234;-68
2023/07/04 07:48:17;;;;;;;16.33;3.72;;;;;;;19.77;57.77;101155.66;5137185;27;20027;-65
2023/07/04 07:50:42;;;;;;;16.17;3.55;;;;;;;19.86;57.15;101151.91;5137509;27;20031;-65
2023/07/04 07:53:08;;;;;;;11.18;3.58;;;;;;;20.01;55.12;101173.03;5137245;27;20026;-65
2023/07/04 07:55:33;;;;;;;13.15;4.82;;;;;;;19.93;55.25;101161.56;5118798;27;20110;-66
2023/07/04 07:57:59;;;;;;;14.57;3.72;;;;;;;19.95;55.22;101173.13;5137077;27;20141;-67
2023/07/04 08:00:24;;;;;;;12.77;4.05;;;;;;;20.18;54.52;101171.75;5137311;27;20031;-65
2023/07/04 08:02:49;;;;;;;14.63;4.32;;;;;;;20.40;54.39;101169.41;5137068;27;20034;-67
2023/07/04 08:05:16;;;;;;;14.23;3.63;;;;;;;20.65;53.81;101173.28;5118678;27;20053;-67
2023/07/04 08:07:41;;;;;;;10.80;3.47;;;;;;;20.74;52.19;101175.72;5137197;27;20076;-67
2023/07/04 08:10:07;;;;;;;16.23;4.50;;;;;;;20.85;53.10;101166.50;5136857;27;20031;-66
2023/07/04 08:12:33;;;;;;;14.20;3.97;;;;;;;21.01;53.73;101165.16;5118742;27;20118;-66
2023/07/04 08:14:59;;;;;;;11.70;3.75;;;;;;;21.27;50.77;101177.88;5136817;27;20408;-66
2023/07/04 08:17:24;;;;;;;11.32;3.50;;;;;;;21.32;50.85;101180.47;5136842;27;20032;-66
2023/07/04 08:19:49;;;;;;;12.80;3.78;;;;;;;21.27;51.71;101172.50;5136817;27;20027;-65
2023/07/04 08:22:15;;;;;;;13.93;4.10;;;;;;;21.31;50.65;101178.69;5136706;27;20118;-67
2023/07/04 08:24:40;;;;;;;13.57;4.18;;;;;;;21.29;51.39;101178.72;5136790;27;20035;-65
2023/07/04 08:27:06;;;;;;;12.88;4.00;;;;;;;21.47;49.37;101174.66;5137152;27;20049;-65
2023/07/04 08:29:31;;;;;;;11.18;3.60;;;;;;;21.83;49.95;101172.66;5139137;27;20035;-64
2023/07/04 08:31:58;;;;;;;12.18;3.50;;;;;;;22.00;47.31;101178.41;5137708;27;20031;-69
2023/07/04 08:34:24;;;;;;;16.30;3.50;;;;;;;21.88;46.01;101188.66;5136527;27;20031;-66
2023/07/04 08:36:49;;;;;;;14.02;3.55;;;;;;;21.86;46.49;101175.28;5118101;27;20030;-67
2023/07/04 08:39:16;;;;;;;13.68;3.38;;;;;;;22.02;46.85;101164.91;5118162;27;20076;-67
2023/07/04 08:42:03;;;;;;;14.10;3.42;;;;;;;22.27;46.58;101161.44;5136544;27;20027;-66
2023/07/04 08:44:41;;;;;;;10.32;3.38;;;;;;;22.29;45.28;101157.78;5136492;27;20078;-67
2023/07/04 08:47:09;;;;;;;11.18;3.38;;;;;;;22.11;45.72;101161.94;5136255;27;20344;-67
2023/07/04 08:49:40;;;;;;;11.73;3.20;;;;;;;22.25;44.71;101161.50;5136019;27;20083;-67
2023/07/04 08:52:22;;;;;;;12.50;3.15;;;;;;;22.47;43.99;101170.63;5136229;27;20064;-66
2023/07/04 08:54:52;;;;;;;8.77;2.90;;;;;;;22.81;42.48;101174.00;5136092;27;20490;-66
2023/07/04 08:57:44;;;;;;;12.18;3.42;;;;;;;23.14;42.33;101170.16;5115310;27;20060;-65
2023/07/04 09:00:16;;;;;;;11.27;3.47;;;;;;;23.30;41.79;101166.88;5095008;28;20028;-63
2023/07/04 09:02:57;;;;;;;11.18;3.40;;;;;;;23.42;39.77;101166.41;5095092;28;20024;-63
2023/07/04 09:05:35;;;;;;;11.30;3.30;;;;;;;23.46;41.25;101168.06;5095086;28;20492;-64
2023/07/04 09:08:12;;;;;;;12.35;3.40;;;;;;;23.77;41.21;101173.22;5094763;28;20028;-65
2023/07/04 09:10:42;;;;;;;9.10;3.13;;;;;;;23.71;38.11;101179.72;5094603;28;20040;-64
2023/07/04 09:13:16;;;;;;;11.95;3.17;;;;;;;23.77;38.68;101183.13;5094520;28;20046;-64
2023/07/04 09:15:46;;;;;;;10.18;3.28;;;;;;;23.81;38.14;101179.34;5094663;28;20487;-63
2023/07/04 09:18:31;;;;;;;11.43;3.42;;;;;;;23.91;39.49;101191.56;5094572;28;20084;-63
2023/07/04 09:21:03;;;;;;;12.82;3.40;;;;;;;23.93;38.63;101182.47;5094529;28;20077;-63
2023/07/04 09:23:29;;;;;;;;;;;;;;;24.06;39.55;101184.69;5094848;28;20464;-65
2023/07/04 09:25:56;;;;;;;10.20;3.22;;;;;;;23.91;37.79;101184.34;5094503;28;19970;-65
2023/07/04 09:28:22;;;;;;;10.65;3.00;;;;;;;23.99;37.42;101201.13;5094609;28;20040;-63
2023/07/04 09:30:47;;;;;;;8.80;3.00;;;;;;;24.01;36.68;101194.78;5094302;28;20078;-63
2023/07/04 09:33:14;;;;;;;12.50;3.40;;;;;;;24.07;37.23;101195.44;5094312;28;20028;-63
2023/07/04 09:35:41;;;;;;;12.90;3.30;;;;;;;24.14;37.81;101187.94;5094556;28;20031;-64
2023/07/04 09:38:07;;;;;;;11.52;3.47;;;;;;;24.17;37.57;101193.25;5094131;28;20491;-64
2023/07/04 09:40:52;;;;;;;12.32;3.50;;;;;;;24.30;38.57;101210.72;5093999;28;20520;-63
2023/07/04 09:43:29;;;;;;;11.07;3.67;;;;;;;24.37;38.89;101198.75;5094465;28;20023;-61
2023/07/04 09:46:09;;;;;;;11.10;3.67;;;;;;;24.27;38.76;101202.72;5094984;28;20477;-63
2023/07/04 09:48:35;;;;;;;9.43;3.70;;;;;;;24.22;37.20;101202.91;5093887;28;20109;-65
2023/07/04 09:51:19;;;;;;;13.27;3.50;;;;;;;24.19;38.59;101194.91;5094059;28;20475;-65
2023/07/04 09:53:44;;;;;;;10.02;3.78;;;;;;;24.40;37.82;101206.72;5093490;28;20028;-65
2023/07/04 09:56:11;;;;;;;14.43;3.70;;;;;;;24.39;37.04;101195.97;5093939;28;20038;-65
2023/07/04 09:58:36;;;;;;;13.80;3.65;;;;;;;24.13;38.48;101211.38;5075673;28;20024;-65
2023/07/04 10:01:16;;;;;;;11.55;3.85;;;;;;;23.85;39.04;101202.59;5094123;28;20031;-65
2023/07/04 10:03:45;;;;;;;10.75;3.70;;;;;;;23.93;39.00;101220.25;5093843;28;20032;-65
2023/07/04 10:06:11;;;;;;;10.57;3.30;;;;;;;24.10;38.12;101206.09;5093711;28;20024;-66
2023/07/04 10:08:53;;;;;;;11.27;3.55;;;;;;;24.39;37.94;101204.97;5093718;28;20111;-65
2023/07/04 10:11:25;;;;;;;14.18;3.67;;;;;;;24.55;37.28;101207.03;5093892;28;20036;-64
2023/07/04 10:14:00;;;;;;;7.18;3.10;;;;;;;24.76;36.91;101218.78;5093468;28;20544;-64
2023/07/04 10:16:25;;;;;;;10.55;3.40;;;;;;;24.93;33.94;101208.13;5093607;28;20024;-64
2023/07/04 10:18:51;;;;;;;9.48;3.40;;;;;;;25.01;34.16;101205.06;5093559;28;20119;-65
2023/07/04 10:21:18;;;;;;;9.55;3.00;;;;;;;25.13;34.00;101191.03;5093683;28;20059;-63
2023/07/04 10:23:45;;;;;;;11.48;3.28;;;;;;;25.30;33.77;101183.03;5093397;28;20024;-63
2023/07/04 10:26:12;;;;;;;8.43;3.28;;;;;;;25.59;34.54;101194.38;5093488;28;20034;-63
2023/07/04 10:28:38;;;;;;;10.57;3.30;;;;;;;25.93;34.64;101181.03;5094925;28;20070;-65
2023/07/04 10:31:14;;;;;;;8.52;3.30;;;;;;;25.94;35.15;101198.16;5078171;28;20058;-64
2023/07/04 10:33:50;;;;;;;9.80;3.35;;;;;;;26.02;35.60;101198.66;5095660;28;20064;-63
2023/07/04 10:36:31;;;;;;;10.15;3.10;;;;;;;26.09;36.46;101197.44;5093853;28;20024;-63
2023/07/04 10:39:01;;;;;;;9.23;3.50;;;;;;;26.14;34.76;101195.38;5093102;28;20027;-63
2023/07/04 10:41:35;;;;;;;12.70;3.10;;;;;;;26.01;35.88;101202.34;5093217;28;20278;-63
2023/07/04 10:44:10;;;;;;;9.45;3.40;;;;;;;25.54;36.05;101200.00;5093099;28;20067;-63
2023/07/04 10:46:48;;;;;;;10.63;3.13;;;;;;;25.31;36.75;101203.75;5093253;28;20077;-63
2023/07/04 10:49:20;;;;;;;10.50;3.25;;;;;;;25.10;36.02;101196.59;5092864;28;20504;-65
2023/07/04 10:51:50;;;;;;;11.20;3.28;;;;;;;24.97;37.19;101207.03;5093119;28;20028;-65
2023/07/04 10:54:16;;;;;;;11.00;3.20;;;;;;;25.31;34.70;101206.47;5093033;28;20423;-65
2023/07/04 10:56:48;;;;;;;11.15;3.08;;;;;;;25.25;34.55;101212.13;5094473;28;20017;-65
2023/07/04 10:59:18;;;;;;;7.60;2.92;;;;;;;25.02;35.29;101204.13;5093487;28;20073;-64
2023/07/04 11:01:58;;;;;;;10.63;3.47;;;;;;;25.21;36.11;101210.50;5092894;28;20509;-63
2023/07/04 11:04:32;;;;;;;8.15;3.20;;;;;;;25.36;35.12;101212.53;5093356;28;20027;-64
2023/07/04 11:07:18;;;;;;;8.77;3.00;;;;;;;25.51;35.27;101205.53;5097623;28;20030;-65
2023/07/04 11:09:45;;;;;;;11.48;3.20;;;;;;;25.44;34.17;101201.38;5079041;28;20051;-66
2023/07/04 11:12:18;;;;;;;8.02;3.03;;;;;;;25.10;34.74;101218.22;5097400;28;20110;-66
2023/07/04 11:14:46;;;;;;;9.43;3.03;;;;;;;24.86;35.43;101212.91;5079111;28;20472;-65
2023/07/04 11:17:17;;;;;;;8.07;3.00;;;;;;;24.72;35.86;101215.31;5096990;28;20119;-66
2023/07/04 11:20:10;;;;;;;7.40;2.77;;;;;;;24.67;36.59;101211.94;5096760;28;20385;-65
2023/07/04 11:22:57;;;;;;;11.40;3.30;;;;;;;24.30;37.08;101194.50;5096940;28;20723;-66